createdAt,value
2023-08-31T00:01:51.888Z,18.10
2023-08-31T00:04:21.204Z,18.20
2023-08-31T00:06:50.557Z,18.20
2023-08-31T00:09:20.361Z,18.20
2023-08-31T00:11:49.500Z,18.20
2023-08-31T00:14:20.238Z,18.20
2023-08-31T00:16:49.313Z,18.20
2023-08-31T00:19:19.103Z,18.10
2023-08-31T00:21:48.229Z,18.10
2023-08-31T00:24:17.336Z,18.00
2023-08-31T00:26:46.667Z,18.00
2023-08-31T00:29:17.791Z,17.90
2023-08-31T00:31:49.583Z,17.90
2023-08-31T00:34:18.808Z,18.00
2023-08-31T00:36:47.969Z,18.00
2023-08-31T00:39:19.014Z,18.00
2023-08-31T00:41:48.081Z,18.00
2023-08-31T00:44:19.301Z,17.90
2023-08-31T00:46:53.152Z,17.90
2023-08-31T00:49:22.312Z,17.90
2023-08-31T00:51:52.295Z,17.80
2023-08-31T00:54:22.247Z,17.80
2023-08-31T00:56:56.271Z,17.90
2023-08-31T00:59:25.769Z,17.80
2023-08-31T01:02:06.294Z,17.80
2023-08-31T01:04:44.030Z,17.80
2023-08-31T01:07:24.860Z,17.80
2023-08-31T01:10:00.459Z,17.70
2023-08-31T01:12:39.791Z,17.80
2023-08-31T01:15:14.124Z,17.70
2023-08-31T01:17:49.517Z,17.70
2023-08-31T01:20:23.212Z,17.70
2023-08-31T01:23:00.328Z,17.70
2023-08-31T01:25:34.128Z,17.70
2023-08-31T01:28:04.911Z,17.70
2023-08-31T01:30:34.744Z,17.70
2023-08-31T01:33:03.916Z,17.70
2023-08-31T01:35:40.731Z,17.70
2023-08-31T01:38:12.050Z,17.80
2023-08-31T01:40:50.979Z,17.70
2023-08-31T01:43:21.258Z,17.70
2023-08-31T01:45:51.027Z,17.70
2023-08-31T01:48:20.242Z,17.70
2023-08-31T01:50:49.346Z,17.70
2023-08-31T01:53:18.448Z,17.70
2023-08-31T01:55:49.016Z,17.60
2023-08-31T01:58:18.086Z,17.70
2023-08-31T02:00:47.258Z,17.70
2023-08-31T02:03:16.566Z,17.70
2023-08-31T02:05:46.020Z,17.70
2023-08-31T02:08:19.113Z,17.60
2023-08-31T02:10:50.671Z,17.60
2023-08-31T02:13:25.662Z,17.60
2023-08-31T02:15:55.128Z,17.50
2023-08-31T02:18:24.421Z,17.50
2023-08-31T02:20:55.227Z,17.40
2023-08-31T02:23:24.324Z,17.50
2023-08-31T02:25:54.791Z,17.40
2023-08-31T02:28:23.964Z,17.40
2023-08-31T02:31:01.233Z,17.40
2023-08-31T02:33:33.574Z,17.50
2023-08-31T02:36:02.633Z,17.50
2023-08-31T02:38:31.801Z,17.50
2023-08-31T02:41:02.281Z,17.50
2023-08-31T02:43:31.683Z,17.50
2023-08-31T02:46:05.010Z,17.40
2023-08-31T02:48:35.685Z,17.50
2023-08-31T02:51:04.872Z,17.50
2023-08-31T02:53:34.034Z,17.40
2023-08-31T02:56:04.689Z,17.40
2023-08-31T02:58:34.154Z,17.30
2023-08-31T03:01:12.747Z,17.30
2023-08-31T03:03:46.912Z,17.40
2023-08-31T03:06:17.720Z,17.40
2023-08-31T03:08:46.859Z,17.40
2023-08-31T03:11:18.048Z,17.40
2023-08-31T03:13:47.184Z,17.40
2023-08-31T03:16:16.326Z,17.40
2023-08-31T03:18:45.472Z,17.30
2023-08-31T03:21:15.346Z,17.40
2023-08-31T03:23:44.527Z,17.40
2023-08-31T03:26:15.069Z,17.50
2023-08-31T03:28:45.844Z,17.50
2023-08-31T03:31:15.045Z,17.40
2023-08-31T03:33:45.302Z,17.30
2023-08-31T03:36:15.010Z,17.30
2023-08-31T03:38:43.987Z,17.40
2023-08-31T03:41:13.077Z,17.30
2023-08-31T03:43:42.407Z,17.30
2023-08-31T03:46:12.999Z,17.20
2023-08-31T03:48:42.243Z,17.20
2023-08-31T03:51:11.345Z,17.20
2023-08-31T03:53:40.631Z,17.10
2023-08-31T03:56:09.777Z,17.10
2023-08-31T03:58:38.925Z,17.10
2023-08-31T04:01:08.086Z,17.20
2023-08-31T04:03:38.831Z,17.20
2023-08-31T04:06:08.023Z,17.10
2023-08-31T04:08:37.241Z,17.20
2023-08-31T04:11:06.702Z,17.20
2023-08-31T04:13:35.858Z,17.20
2023-08-31T04:16:04.997Z,17.20
2023-08-31T04:18:34.277Z,17.20
2023-08-31T04:21:05.746Z,17.30
2023-08-31T04:23:35.035Z,17.30
2023-08-31T04:26:12.946Z,17.30
2023-08-31T04:28:43.759Z,17.30
2023-08-31T04:31:13.147Z,17.20
2023-08-31T04:33:42.325Z,17.30
2023-08-31T04:36:13.064Z,17.30
2023-08-31T04:38:42.252Z,17.30
2023-08-31T04:41:11.350Z,17.30
2023-08-31T04:43:41.052Z,17.30
2023-08-31T04:46:10.141Z,17.30
2023-08-31T04:48:41.117Z,17.40
2023-08-31T04:51:16.188Z,17.40
2023-08-31T04:53:46.598Z,17.40
2023-08-31T04:56:16.734Z,17.40
2023-08-31T04:58:45.899Z,17.50
2023-08-31T05:01:15.934Z,17.50
2023-08-31T05:03:45.281Z,17.60
2023-08-31T05:06:15.872Z,17.60
2023-08-31T05:08:45.274Z,17.70
2023-08-31T05:11:14.430Z,17.70
2023-08-31T05:13:44.697Z,17.80
2023-08-31T05:16:14.164Z,17.80
2023-08-31T05:18:43.273Z,17.90
2023-08-31T05:21:12.351Z,18.00
2023-08-31T05:23:42.924Z,18.00
2023-08-31T05:26:12.072Z,18.10
2023-08-31T05:28:41.202Z,18.20
2023-08-31T05:31:10.749Z,18.30
2023-08-31T05:33:39.920Z,18.30
2023-08-31T05:36:09.364Z,18.30
2023-08-31T05:38:38.943Z,18.30
2023-08-31T05:41:10.888Z,18.30
2023-08-31T05:43:41.736Z,18.40
2023-08-31T05:46:11.023Z,18.50
2023-08-31T05:48:40.227Z,18.70
2023-08-31T05:51:09.320Z,18.80
2023-08-31T05:53:39.083Z,19.00
2023-08-31T05:56:09.792Z,19.00
2023-08-31T05:58:39.772Z,19.10
2023-08-31T06:01:09.084Z,19.10
2023-08-31T06:03:38.383Z,19.20
2023-08-31T06:06:07.643Z,19.10
2023-08-31T06:08:36.837Z,19.00
2023-08-31T06:11:06.103Z,19.00
2023-08-31T06:13:36.920Z,18.90
2023-08-31T06:16:06.486Z,18.90
2023-08-31T06:18:35.728Z,18.90
2023-08-31T06:21:05.360Z,19.00
2023-08-31T06:23:34.602Z,19.20
2023-08-31T06:26:04.766Z,19.40
2023-08-31T06:28:34.028Z,19.70
2023-08-31T06:31:05.565Z,20.30
2023-08-31T06:33:34.938Z,21.20
2023-08-31T06:36:04.126Z,22.80
2023-08-31T06:38:33.314Z,24.40
2023-08-31T06:41:04.209Z,25.70
2023-08-31T06:43:33.407Z,25.80
2023-08-31T06:46:21.814Z,25.30
2023-08-31T06:48:53.928Z,24.70
2023-08-31T06:51:25.233Z,24.10
2023-08-31T06:53:55.022Z,24.20
2023-08-31T06:56:24.642Z,24.30
2023-08-31T06:58:53.964Z,24.40
2023-08-31T07:01:25.196Z,24.70
2023-08-31T07:03:54.563Z,24.80
2023-08-31T07:06:23.874Z,24.80
2023-08-31T07:08:53.306Z,24.50
2023-08-31T07:11:22.911Z,24.40
2023-08-31T07:13:52.246Z,24.30
2023-08-31T07:16:21.658Z,24.10
2023-08-31T07:18:52.265Z,23.80
2023-08-31T07:21:21.969Z,23.60
2023-08-31T07:23:51.316Z,23.40
2023-08-31T07:26:20.565Z,23.30
2023-08-31T07:28:49.873Z,23.30
2023-08-31T07:31:19.261Z,23.40
2023-08-31T07:33:48.606Z,23.70
2023-08-31T07:36:19.343Z,23.80
2023-08-31T07:38:48.509Z,23.80
2023-08-31T07:41:17.813Z,23.90
2023-08-31T07:44:03.661Z,24.00
2023-08-31T07:46:34.370Z,24.10
2023-08-31T07:49:05.262Z,24.40
2023-08-31T07:51:36.130Z,24.60
2023-08-31T07:54:05.534Z,25.00
2023-08-31T07:56:34.878Z,25.70
2023-08-31T07:59:04.260Z,26.10
2023-08-31T08:01:33.879Z,26.00
2023-08-31T08:04:03.483Z,26.30
2023-08-31T08:06:32.820Z,26.50
2023-08-31T08:09:03.912Z,26.70
2023-08-31T08:11:33.607Z,26.60
2023-08-31T08:14:02.823Z,26.70
2023-08-31T08:16:32.291Z,27.00
2023-08-31T08:19:01.555Z,27.20
2023-08-31T08:21:30.832Z,27.10
2023-08-31T08:24:00.187Z,27.10
2023-08-31T08:26:30.915Z,27.20
2023-08-31T08:29:00.128Z,27.20
2023-08-31T08:31:29.438Z,26.90
2023-08-31T08:33:59.250Z,26.80
2023-08-31T08:36:28.515Z,26.80
2023-08-31T08:38:57.879Z,26.80
2023-08-31T08:41:27.407Z,26.90
2023-08-31T08:44:04.721Z,27.10
2023-08-31T08:46:35.208Z,27.50
2023-08-31T08:49:06.858Z,28.10
2023-08-31T08:51:36.292Z,28.80
2023-08-31T08:54:06.008Z,29.30
2023-08-31T08:56:36.142Z,29.40
2023-08-31T08:59:07.482Z,29.10
2023-08-31T09:01:38.859Z,28.50
2023-08-31T09:04:08.896Z,28.40
2023-08-31T09:06:38.369Z,28.40
2023-08-31T09:09:07.701Z,27.90
2023-08-31T09:11:38.524Z,27.50
2023-08-31T09:14:18.771Z,27.10
2023-08-31T09:16:49.984Z,26.80
2023-08-31T09:19:24.525Z,26.70
2023-08-31T09:21:56.016Z,26.30
2023-08-31T09:24:25.801Z,26.20
2023-08-31T09:26:56.431Z,26.30
2023-08-31T09:29:27.166Z,26.30
2023-08-31T09:31:59.708Z,26.30
2023-08-31T09:34:36.269Z,26.30
2023-08-31T09:37:10.419Z,26.20
2023-08-31T09:39:39.965Z,26.30
2023-08-31T09:42:09.569Z,26.30
2023-08-31T09:44:44.064Z,26.30
2023-08-31T09:47:15.405Z,26.50
2023-08-31T09:49:46.701Z,26.80
2023-08-31T09:52:17.133Z,26.70
2023-08-31T09:54:47.531Z,26.50
2023-08-31T09:57:22.592Z,25.90
2023-08-31T10:00:00.754Z,25.80
2023-08-31T10:02:33.431Z,25.90
2023-08-31T10:05:06.765Z,26.00
2023-08-31T10:07:36.413Z,26.30
2023-08-31T10:10:06.398Z,26.70
2023-08-31T10:12:37.160Z,26.50
2023-08-31T10:15:09.158Z,26.50
2023-08-31T10:17:39.354Z,26.20
2023-08-31T10:20:10.940Z,26.20
2023-08-31T10:22:40.840Z,26.30
2023-08-31T10:25:13.108Z,26.20
2023-08-31T10:27:43.684Z,26.10
2023-08-31T10:30:27.249Z,26.20
2023-08-31T10:33:25.027Z,26.40
2023-08-31T10:35:57.307Z,26.50
2023-08-31T10:38:28.429Z,26.40
2023-08-31T10:41:20.194Z,26.20
2023-08-31T10:43:51.627Z,25.90
2023-08-31T10:46:33.420Z,25.80
2023-08-31T10:49:04.410Z,26.00
2023-08-31T10:51:34.781Z,26.00
2023-08-31T10:54:15.061Z,25.90
2023-08-31T10:57:13.714Z,25.80
2023-08-31T10:59:49.219Z,25.80
2023-08-31T11:02:37.862Z,25.90
2023-08-31T11:05:11.810Z,26.00
2023-08-31T11:07:42.670Z,25.80
2023-08-31T11:10:14.915Z,25.70
2023-08-31T11:12:45.538Z,25.60
2023-08-31T11:15:15.947Z,25.40
2023-08-31T11:17:47.981Z,25.40
2023-08-31T11:20:19.168Z,25.30
2023-08-31T11:22:51.889Z,25.20
2023-08-31T11:25:22.981Z,25.20
2023-08-31T11:27:58.934Z,25.30
2023-08-31T11:30:28.860Z,25.40
2023-08-31T11:32:59.902Z,25.20
2023-08-31T11:35:37.534Z,25.00
2023-08-31T11:38:08.371Z,25.00
2023-08-31T11:40:38.694Z,25.00
2023-08-31T11:43:08.811Z,25.00
2023-08-31T11:45:39.913Z,25.20
2023-08-31T11:48:11.132Z,25.30
2023-08-31T11:50:43.440Z,25.30
2023-08-31T11:53:13.289Z,25.30
2023-08-31T11:55:53.279Z,25.50
2023-08-31T11:58:22.685Z,25.80
2023-08-31T12:00:58.856Z,25.70
2023-08-31T12:03:40.116Z,25.70
2023-08-31T12:06:14.128Z,25.70
2023-08-31T12:08:43.565Z,25.90
2023-08-31T12:11:13.251Z,26.00
2023-08-31T12:13:42.592Z,26.00
2023-08-31T12:16:15.332Z,25.90
2023-08-31T12:18:47.259Z,25.80
2023-08-31T12:21:16.454Z,25.70
2023-08-31T12:23:45.631Z,25.60
2023-08-31T12:26:14.915Z,25.60
2023-08-31T12:28:44.112Z,25.70
2023-08-31T12:31:13.661Z,25.90
2023-08-31T12:33:43.052Z,26.00
2023-08-31T12:36:13.646Z,26.10
2023-08-31T12:38:42.911Z,26.30
2023-08-31T12:41:12.034Z,26.30
2023-08-31T12:43:41.269Z,26.20
2023-08-31T12:46:11.017Z,26.00
2023-08-31T12:48:40.150Z,25.80
2023-08-31T12:51:09.341Z,25.80
2023-08-31T12:53:42.249Z,25.90
2023-08-31T12:56:11.699Z,26.10
2023-08-31T12:58:41.337Z,26.30
2023-08-31T13:01:10.730Z,26.20
2023-08-31T13:03:40.099Z,26.20
2023-08-31T13:06:09.396Z,26.10
2023-08-31T13:08:38.683Z,26.00
2023-08-31T13:11:09.763Z,26.00
2023-08-31T13:13:39.077Z,25.90
2023-08-31T13:16:08.284Z,25.90
2023-08-31T13:18:37.648Z,26.00
2023-08-31T13:21:06.850Z,25.90
2023-08-31T13:23:36.126Z,25.80
2023-08-31T13:26:05.566Z,25.80
2023-08-31T13:28:36.368Z,25.80
2023-08-31T13:31:05.799Z,25.50
2023-08-31T13:33:35.005Z,25.40
2023-08-31T13:36:04.990Z,25.50
2023-08-31T13:38:34.206Z,25.60
2023-08-31T13:41:04.853Z,25.50
2023-08-31T13:43:35.396Z,25.40
2023-08-31T13:46:05.774Z,25.40
2023-08-31T13:48:35.228Z,25.40
2023-08-31T13:51:04.732Z,25.30
2023-08-31T13:53:34.041Z,25.30
2023-08-31T13:56:03.399Z,25.10
2023-08-31T13:58:32.514Z,24.90
2023-08-31T14:01:05.131Z,24.60
2023-08-31T14:03:34.580Z,24.50
2023-08-31T14:06:07.135Z,24.40
2023-08-31T14:08:37.094Z,24.00
2023-08-31T14:11:08.274Z,23.50
2023-08-31T14:13:37.712Z,23.00
2023-08-31T14:16:09.587Z,22.60
2023-08-31T14:18:39.008Z,22.30
2023-08-31T14:21:08.342Z,22.10
2023-08-31T14:23:38.808Z,22.00
2023-08-31T14:26:10.846Z,22.00
2023-08-31T14:28:40.125Z,22.00
2023-08-31T14:31:11.235Z,21.90
2023-08-31T14:33:41.067Z,21.80
2023-08-31T14:36:11.960Z,21.60
2023-08-31T14:38:42.127Z,21.50
2023-08-31T14:41:12.260Z,21.40
2023-08-31T14:43:41.998Z,21.20
2023-08-31T14:46:13.827Z,21.00
2023-08-31T14:48:43.777Z,20.70
2023-08-31T14:51:14.907Z,20.50
2023-08-31T14:53:44.201Z,20.30
2023-08-31T14:56:14.739Z,19.90
2023-08-31T14:58:44.273Z,19.50
2023-08-31T15:01:15.775Z,19.20
2023-08-31T15:03:46.572Z,19.00
2023-08-31T15:06:17.186Z,18.80
2023-08-31T15:08:47.642Z,18.70
2023-08-31T15:11:17.174Z,18.60
2023-08-31T15:13:47.614Z,18.60
2023-08-31T15:16:19.655Z,18.50
2023-08-31T15:18:50.026Z,18.50
2023-08-31T15:21:22.433Z,18.60
2023-08-31T15:23:52.744Z,18.60
2023-08-31T15:26:22.603Z,18.80
2023-08-31T15:28:54.491Z,18.90
2023-08-31T15:31:26.709Z,19.10
2023-08-31T15:33:57.260Z,19.20
2023-08-31T15:36:27.070Z,19.30
2023-08-31T15:38:57.202Z,19.30
2023-08-31T15:41:30.176Z,19.50
2023-08-31T15:44:01.386Z,19.50
2023-08-31T15:46:32.628Z,19.40
2023-08-31T15:49:03.480Z,19.20
2023-08-31T15:51:34.731Z,19.20
2023-08-31T15:54:06.220Z,19.20
2023-08-31T15:56:36.423Z,19.40
2023-08-31T15:59:07.154Z,19.50
2023-08-31T16:01:39.381Z,19.50
2023-08-31T16:04:10.188Z,19.60
2023-08-31T16:06:41.384Z,19.70
2023-08-31T16:09:11.097Z,19.70
2023-08-31T16:11:42.180Z,19.80
2023-08-31T16:14:12.925Z,19.90
2023-08-31T16:16:43.863Z,20.00
2023-08-31T16:19:13.985Z,20.00
2023-08-31T16:21:44.590Z,20.20
2023-08-31T16:24:15.320Z,20.20
2023-08-31T16:26:45.641Z,20.20
2023-08-31T16:29:18.204Z,20.30
2023-08-31T16:31:50.523Z,20.30
2023-08-31T16:34:20.313Z,20.30
2023-08-31T16:36:50.989Z,20.20
2023-08-31T16:39:22.137Z,20.20
2023-08-31T16:41:53.227Z,20.10
2023-08-31T16:44:24.202Z,20.10
2023-08-31T16:46:59.801Z,20.10
2023-08-31T16:49:30.435Z,20.20
2023-08-31T16:52:01.781Z,20.10
2023-08-31T16:54:32.133Z,20.10
2023-08-31T16:57:04.089Z,20.00
2023-08-31T16:59:33.572Z,20.00
2023-08-31T17:02:05.188Z,19.90
2023-08-31T17:04:40.523Z,19.70
2023-08-31T17:07:10.423Z,19.70
2023-08-31T17:09:41.311Z,19.60
2023-08-31T17:12:13.319Z,19.50
2023-08-31T17:14:47.054Z,19.50
2023-08-31T17:17:18.945Z,19.40
2023-08-31T17:19:50.742Z,19.30
2023-08-31T17:22:22.143Z,19.20
2023-08-31T17:24:55.961Z,19.10
2023-08-31T17:27:26.047Z,19.00
2023-08-31T17:29:57.664Z,18.90
2023-08-31T17:32:31.516Z,18.80
2023-08-31T17:35:04.841Z,18.80
2023-08-31T17:37:35.560Z,18.70
2023-08-31T17:40:08.785Z,18.60
2023-08-31T17:42:42.294Z,18.40
2023-08-31T17:45:15.839Z,18.30
2023-08-31T17:47:49.515Z,18.30
2023-08-31T17:50:21.146Z,18.30
2023-08-31T17:52:52.741Z,18.30
2023-08-31T17:55:25.719Z,18.30
2023-08-31T17:58:06.270Z,18.20
2023-08-31T18:00:38.569Z,18.10
2023-08-31T18:03:13.719Z,18.10
2023-08-31T18:05:53.510Z,18.10
2023-08-31T18:08:24.961Z,18.10
2023-08-31T18:10:55.585Z,18.00
2023-08-31T18:13:29.226Z,18.00
2023-08-31T18:16:00.246Z,17.90
2023-08-31T18:18:36.443Z,17.90
2023-08-31T18:21:07.399Z,17.80
2023-08-31T18:23:39.971Z,17.80
2023-08-31T18:26:14.903Z,17.70
2023-08-31T18:28:44.836Z,17.70
2023-08-31T18:31:18.530Z,17.70
2023-08-31T18:33:55.380Z,17.60
2023-08-31T18:36:25.390Z,17.60
2023-08-31T18:39:01.430Z,17.60
2023-08-31T18:41:32.363Z,17.70
2023-08-31T18:44:04.111Z,17.60
2023-08-31T18:46:35.327Z,17.60
2023-08-31T18:49:07.832Z,17.60
2023-08-31T18:51:45.087Z,17.50
2023-08-31T18:54:17.130Z,17.40
2023-08-31T18:56:49.751Z,17.40
2023-08-31T18:59:21.589Z,17.30
2023-08-31T19:01:52.780Z,17.30
2023-08-31T19:04:25.796Z,17.30
2023-08-31T19:07:02.900Z,17.30
2023-08-31T19:09:34.596Z,17.20
2023-08-31T19:12:05.766Z,17.10
2023-08-31T19:14:44.924Z,17.10
2023-08-31T19:17:18.029Z,17.10
2023-08-31T19:19:57.330Z,17.10
2023-08-31T19:22:28.396Z,17.10
2023-08-31T19:25:01.758Z,17.10
2023-08-31T19:27:32.107Z,17.10
2023-08-31T19:30:04.897Z,17.10
2023-08-31T19:32:36.750Z,17.20
2023-08-31T19:35:32.602Z,17.10
2023-08-31T19:38:05.832Z,17.10
2023-08-31T19:40:35.880Z,17.10
2023-08-31T19:43:12.758Z,17.00
2023-08-31T19:45:42.961Z,17.00
2023-08-31T19:48:14.259Z,17.00
2023-08-31T19:50:49.607Z,16.90
2023-08-31T19:53:19.542Z,16.90
2023-08-31T19:55:52.833Z,16.90
2023-08-31T19:58:25.464Z,16.90
2023-08-31T20:00:56.466Z,16.90
2023-08-31T20:03:27.952Z,16.80
2023-08-31T20:05:59.734Z,16.80
2023-08-31T20:08:33.470Z,16.70
2023-08-31T20:11:04.641Z,16.70
2023-08-31T20:13:36.291Z,16.70
2023-08-31T20:16:11.305Z,16.60
2023-08-31T20:18:40.757Z,16.70
2023-08-31T20:21:15.638Z,16.60
2023-08-31T20:23:45.705Z,16.60
2023-08-31T20:26:16.484Z,16.50
2023-08-31T20:28:48.545Z,16.50
2023-08-31T20:31:20.597Z,16.60
2023-08-31T20:33:50.634Z,16.50
2023-08-31T20:36:24.985Z,16.50
2023-08-31T20:38:54.987Z,16.50
2023-08-31T20:41:25.909Z,16.50
2023-08-31T20:43:55.687Z,16.50
2023-08-31T20:46:25.397Z,16.50
2023-08-31T20:48:54.675Z,16.40
2023-08-31T20:51:26.942Z,16.50
2023-08-31T20:53:57.155Z,16.50
2023-08-31T20:56:29.469Z,16.40
2023-08-31T20:58:59.867Z,16.40
2023-08-31T21:01:29.405Z,16.40
2023-08-31T21:04:00.174Z,16.40
2023-08-31T21:06:31.153Z,16.40
2023-08-31T21:09:00.692Z,16.40
2023-08-31T21:11:30.617Z,16.30
2023-08-31T21:14:00.149Z,16.30
2023-08-31T21:16:33.470Z,16.30
2023-08-31T21:19:06.424Z,16.30
2023-08-31T21:21:37.524Z,16.30
2023-08-31T21:24:07.170Z,16.30
2023-08-31T21:26:39.431Z,16.30
2023-08-31T21:29:09.663Z,16.20
2023-08-31T21:31:39.649Z,16.20
2023-08-31T21:34:09.182Z,16.10
2023-08-31T21:36:39.755Z,16.20
2023-08-31T21:39:08.884Z,16.10
2023-08-31T21:41:38.018Z,16.10
2023-08-31T21:44:07.524Z,16.10
2023-08-31T21:46:36.650Z,16.00
2023-08-31T21:49:06.233Z,16.00
2023-08-31T21:51:35.309Z,16.00
2023-08-31T21:54:06.172Z,16.00
2023-08-31T21:56:35.275Z,15.90
2023-08-31T21:59:04.517Z,15.90
2023-08-31T22:01:33.618Z,15.90
2023-08-31T22:04:02.825Z,15.80
2023-08-31T22:06:32.300Z,15.90
2023-08-31T22:09:01.542Z,15.80
2023-08-31T22:11:32.378Z,15.80
2023-08-31T22:14:01.888Z,15.90
2023-08-31T22:16:31.176Z,15.90
2023-08-31T22:19:01.170Z,15.90
2023-08-31T22:21:30.497Z,15.80
2023-08-31T22:24:00.037Z,15.80
2023-08-31T22:26:29.607Z,15.80
2023-08-31T22:29:00.636Z,15.80
2023-08-31T22:31:30.004Z,15.80
2023-08-31T22:33:59.375Z,15.70
2023-08-31T22:36:28.853Z,15.70
2023-08-31T22:38:58.379Z,15.70
2023-08-31T22:41:27.698Z,15.70
2023-08-31T22:43:57.113Z,15.70
2023-08-31T22:46:27.832Z,15.70
2023-08-31T22:48:57.071Z,15.60
2023-08-31T22:51:26.110Z,15.60
2023-08-31T22:53:55.256Z,15.60
2023-08-31T22:56:24.345Z,15.60
2023-08-31T22:58:53.522Z,15.60
2023-08-31T23:01:22.743Z,15.60
2023-08-31T23:03:53.373Z,15.50
2023-08-31T23:06:22.649Z,15.50
2023-08-31T23:08:51.863Z,15.50
2023-08-31T23:11:22.085Z,15.50
2023-08-31T23:13:51.721Z,15.50
2023-08-31T23:16:20.881Z,15.40
2023-08-31T23:18:50.105Z,15.40
2023-08-31T23:21:26.714Z,15.40
2023-08-31T23:24:00.912Z,15.40
2023-08-31T23:26:30.109Z,15.40
2023-08-31T23:28:59.233Z,15.40
2023-08-31T23:31:28.466Z,15.40
2023-08-31T23:33:57.588Z,15.40
2023-08-31T23:36:28.344Z,15.30
2023-08-31T23:38:57.480Z,15.30
2023-08-31T23:41:27.310Z,15.30
2023-08-31T23:43:56.495Z,15.30
2023-08-31T23:46:26.305Z,15.30
2023-08-31T23:48:55.469Z,15.30
2023-08-31T23:51:24.884Z,15.20
2023-08-31T23:53:56.484Z,15.30
2023-08-31T23:56:25.794Z,15.30
2023-08-31T23:58:54.894Z,15.30
